Time;durP1;ratioP1;P1;durP2;ratioP2;P2;SDS_P1;SDS_P2;PMS_P1;PMS_P2;Temp;Humidity;BMP_temperature;BMP_pressure;BME280_temperature;BME280_humidity;BME280_pressure;Samples;Min_cycle;Max_cycle;Signal;HPM_P1;HPM_P2
2023/11/05 00:00:51;;;;;;;2.10;0.85;;;;;;;9.17;82.13;98727.66;5078491;28;20048;-74
2023/11/05 00:03:19;;;;;;;5.38;1.08;;;;;;;9.16;82.16;98731.16;5082370;28;20048;-78
2023/11/05 00:05:46;;;;;;;3.72;0.95;;;;;;;9.16;82.37;98737.25;5092416;28;20420;-77
2023/11/05 00:08:13;;;;;;;6.10;1.00;;;;;;;9.16;82.54;98736.38;5086916;28;20047;-78
2023/11/05 00:10:39;;;;;;;4.53;1.00;;;;;;;9.16;82.52;98738.97;5088455;28;20041;-78
2023/11/05 00:13:08;;;;;;;5.88;1.13;;;;;;;9.16;82.52;98742.44;5087591;28;20042;-78
2023/11/05 00:15:35;;;;;;;3.67;1.52;;;;;;;9.16;82.41;98747.66;5092070;28;20054;-78
2023/11/05 00:18:02;;;;;;;5.28;0.90;;;;;;;9.16;82.14;98747.66;5090087;28;20044;-78
2023/11/05 00:20:30;;;;;;;5.40;1.00;;;;;;;9.14;82.36;98749.47;5084507;28;20051;-78
2023/11/05 00:22:57;;;;;;;6.57;0.90;;;;;;;9.13;82.42;98747.78;5083215;28;20420;-74
2023/11/05 00:25:24;;;;;;;2.83;1.25;;;;;;;9.13;82.09;98745.16;5078926;28;20059;-72
2023/11/05 00:27:51;;;;;;;4.00;1.83;;;;;;;9.14;82.33;98752.09;5079963;28;20046;-73
2023/11/05 00:30:18;;;;;;;4.53;1.95;;;;;;;9.14;82.45;98752.09;5079959;28;20583;-72
2023/11/05 00:32:45;;;;;;;4.63;1.80;;;;;;;9.15;82.48;98752.94;5084149;28;20074;-72
2023/11/05 00:35:12;;;;;;;19.73;2.30;;;;;;;9.12;82.57;98756.50;5079841;28;20497;-73
2023/11/05 00:37:40;;;;;;;7.07;1.30;;;;;;;9.13;82.21;98752.97;5079290;28;20046;-73
2023/11/05 00:40:08;;;;;;;2.20;1.60;;;;;;;9.13;82.32;98757.34;5079038;28;20523;-73
2023/11/05 00:42:35;;;;;;;4.50;1.35;;;;;;;9.14;81.98;98769.47;5082987;28;20508;-72
2023/11/05 00:45:02;;;;;;;3.17;1.30;;;;;;;9.12;82.03;98769.53;5085853;28;20048;-74
2023/11/05 00:47:29;;;;;;;7.97;1.52;;;;;;;9.12;82.06;98772.13;5082100;28;20050;-72
2023/11/05 00:49:56;;;;;;;5.95;1.20;;;;;;;9.12;82.11;98774.75;5083525;28;20048;-73
2023/11/05 00:52:23;;;;;;;5.28;1.67;;;;;;;9.08;81.95;98770.59;5077591;28;20135;-72
2023/11/05 00:54:51;;;;;;;6.55;1.65;;;;;;;9.10;81.99;98779.16;5079483;28;20044;-72
2023/11/05 00:57:18;;;;;;;4.47;1.48;;;;;;;9.10;82.12;98786.13;5078553;28;20055;-72
2023/11/05 00:59:45;;;;;;;5.07;1.27;;;;;;;9.10;81.81;98784.38;5079277;28;20057;-73
2023/11/05 01:02:12;;;;;;;6.13;0.95;;;;;;;9.09;81.92;98787.91;5076387;28;20401;-72
2023/11/05 01:04:39;;;;;;;7.38;0.98;;;;;;;9.09;81.68;98790.50;5078682;28;20048;-73
2023/11/05 01:07:06;;;;;;;4.22;1.02;;;;;;;9.06;81.60;98782.00;5081313;28;20055;-72
2023/11/05 01:09:32;;;;;;;4.13;1.25;;;;;;;9.04;81.70;98784.66;5080796;28;20048;-73
2023/11/05 01:12:02;;;;;;;6.03;1.58;;;;;;;9.08;81.33;98791.44;5079515;28;20053;-73
2023/11/05 01:14:29;;;;;;;7.53;1.30;;;;;;;9.08;81.45;98793.16;5072235;28;20063;-69
2023/11/05 01:16:56;;;;;;;2.63;0.90;;;;;;;9.07;81.25;98794.94;5079785;28;20044;-68
2023/11/05 01:19:23;;;;;;;7.47;0.82;;;;;;;9.07;81.17;98794.94;5080262;28;20052;-68
2023/11/05 01:21:50;;;;;;;3.20;0.90;;;;;;;9.06;81.23;98792.41;5082719;28;20402;-69
2023/11/05 01:24:17;;;;;;;3.75;1.25;;;;;;;9.06;81.18;98789.81;5076191;28;20472;-70
2023/11/05 01:26:44;;;;;;;4.20;0.93;;;;;;;9.05;81.14;98794.16;5080874;28;20459;-69
2023/11/05 01:29:12;;;;;;;5.75;1.27;;;;;;;9.05;81.23;98791.56;5076254;28;20043;-69
2023/11/05 01:31:39;;;;;;;5.00;0.60;;;;;;;9.04;80.92;98789.84;5075982;28;20056;-68
2023/11/05 01:34:06;;;;;;;12.02;1.88;;;;;;;9.03;80.64;98787.34;5081581;28;20047;-75
2023/11/05 01:36:32;;;;;;;5.78;0.60;;;;;;;9.03;80.55;98785.56;5077708;28;20049;-75
2023/11/05 01:38:59;;;;;;;4.10;0.90;;;;;;;8.98;80.83;98780.56;5083920;28;20046;-75
2023/11/05 01:41:26;;;;;;;4.63;0.70;;;;;;;8.99;80.48;98782.25;5076978;28;20054;-76
2023/11/05 01:43:53;;;;;;;3.67;0.75;;;;;;;8.99;80.60;98782.25;5078693;28;20448;-75
2023/11/05 01:46:21;;;;;;;7.82;0.68;;;;;;;8.98;80.36;98784.91;5083549;28;20059;-75
2023/11/05 01:48:48;;;;;;;2.80;0.82;;;;;;;8.98;80.42;98790.97;5082453;28;20071;-75
2023/11/05 01:51:16;;;;;;;2.92;0.90;;;;;;;8.97;80.59;98801.47;5080226;28;20046;-75
2023/11/05 01:53:44;;;;;;;1.80;0.63;;;;;;;8.96;80.67;98786.75;5079102;28;20040;-74
2023/11/05 01:56:12;;;;;;;4.65;1.33;;;;;;;8.96;80.31;98784.13;5080482;28;20067;-75
2023/11/05 01:58:40;;;;;;;3.00;0.60;;;;;;;8.95;80.12;98798.06;5078563;28;20478;-74
2023/11/05 02:01:09;;;;;;;5.40;0.80;;;;;;;8.94;80.63;98799.00;5079287;28;20131;-75
2023/11/05 02:03:39;;;;;;;2.85;0.60;;;;;;;8.93;80.60;98786.88;5078472;28;20058;-74
2023/11/05 02:06:06;;;;;;;3.35;0.60;;;;;;;8.90;80.07;98785.25;5077030;28;20412;-74
2023/11/05 02:08:33;;;;;;;2.00;0.63;;;;;;;8.92;79.97;98780.00;5077798;28;20134;-75
2023/11/05 02:11:00;;;;;;;3.58;0.88;;;;;;;8.92;80.43;98785.19;5082791;28;20067;-74
2023/11/05 02:13:27;;;;;;;6.18;0.88;;;;;;;8.89;80.22;98783.56;5081873;28;20048;-74
2023/11/05 02:15:54;;;;;;;7.32;1.25;;;;;;;8.90;80.50;98793.06;5081540;28;20435;-75
2023/11/05 02:18:21;;;;;;;1.92;0.50;;;;;;;8.89;80.56;98783.56;5081013;28;20050;-75
2023/11/05 02:20:49;;;;;;;4.40;0.80;;;;;;;8.88;80.06;98794.03;5079851;28;20040;-74
2023/11/05 02:23:19;;;;;;;3.65;0.80;;;;;;;8.88;80.33;98799.25;5075419;28;20498;-74
2023/11/05 02:25:46;;;;;;;5.40;0.63;;;;;;;8.88;80.33;98799.25;5079708;28;20052;-75
2023/11/05 02:28:13;;;;;;;3.17;0.70;;;;;;;8.87;79.80;98798.41;5080999;28;20061;-75
2023/11/05 02:30:39;;;;;;;4.57;0.70;;;;;;;8.87;79.93;98798.41;5078064;28;20047;-75
2023/11/05 02:33:06;;;;;;;6.82;0.50;;;;;;;8.86;80.35;98799.31;5082065;28;20051;-75
2023/11/05 02:35:33;;;;;;;6.13;0.68;;;;;;;8.86;79.95;98801.94;5079666;28;20733;-73
2023/11/05 02:38:00;;;;;;;5.15;1.02;;;;;;;8.86;79.87;98806.28;5082217;28;20413;-75
2023/11/05 02:40:28;;;;;;;8.63;0.50;;;;;;;8.84;80.27;98803.75;5076088;28;20413;-74
2023/11/05 02:42:55;;;;;;;3.22;0.50;;;;;;;8.84;79.79;98802.91;5080788;28;20124;-69
2023/11/05 02:45:22;;;;;;;1.58;0.45;;;;;;;8.82;79.47;98797.75;5077838;28;20060;-69
2023/11/05 02:47:49;;;;;;;1.95;0.80;;;;;;;8.81;79.54;98803.03;5079062;28;20055;-69
2023/11/05 02:50:15;;;;;;;1.58;0.40;;;;;;;8.79;79.97;98803.09;5074129;28;20055;-68
2023/11/05 02:52:42;;;;;;;3.78;0.50;;;;;;;8.81;79.42;98806.47;5079065;28;20048;-69
2023/11/05 02:55:10;;;;;;;2.90;0.60;;;;;;;8.79;79.55;98805.69;5077824;28;20059;-69
2023/11/05 02:57:39;;;;;;;2.72;0.40;;;;;;;8.77;79.29;98803.16;5073772;28;20048;-70
2023/11/05 03:00:07;;;;;;;3.83;0.40;;;;;;;8.75;79.41;98789.38;5075020;28;20048;-68
2023/11/05 03:02:35;;;;;;;2.10;0.93;;;;;;;8.76;79.25;98796.25;5078007;28;20049;-69
2023/11/05 03:05:03;;;;;;;4.75;0.40;;;;;;;8.75;79.33;98804.97;5077296;28;20501;-69
2023/11/05 03:07:30;;;;;;;4.63;0.30;;;;;;;8.73;79.55;98798.97;5075718;28;20147;-69
2023/11/05 03:09:57;;;;;;;2.15;0.50;;;;;;;8.73;79.52;98798.16;5079026;28;20048;-68
2023/11/05 03:12:24;;;;;;;2.28;0.50;;;;;;;8.72;79.05;98789.50;5073745;28;20036;-69
2023/11/05 03:14:53;;;;;;;4.40;0.50;;;;;;;8.70;78.80;98793.91;5075188;28;20036;-69
2023/11/05 03:17:20;;;;;;;4.10;0.40;;;;;;;8.68;78.84;98790.56;5078267;28;20078;-69
2023/11/05 03:19:47;;;;;;;1.42;0.35;;;;;;;8.67;79.11;98790.59;5080139;28;20390;-69
2023/11/05 03:22:14;;;;;;;2.35;0.43;;;;;;;8.65;78.99;98793.28;5075741;28;20048;-68
2023/11/05 03:24:41;;;;;;;3.40;0.40;;;;;;;8.65;78.93;98792.41;5074224;28;20048;-69
2023/11/05 03:27:08;;;;;;;3.70;0.50;;;;;;;8.63;78.92;98789.06;5075732;28;20044;-69
2023/11/05 03:29:35;;;;;;;1.58;0.40;;;;;;;8.62;78.76;98793.38;5080062;28;20040;-69
2023/11/05 03:32:04;;;;;;;3.97;0.70;;;;;;;8.61;78.66;98796.91;5078529;28;20125;-68
2023/11/05 03:34:31;;;;;;;2.78;0.40;;;;;;;8.60;78.96;98782.22;5081302;28;20058;-74
2023/11/05 03:36:58;;;;;;;4.95;0.40;;;;;;;8.54;78.83;98775.50;5077603;28;20075;-73
2023/11/05 03:39:24;;;;;;;1.48;0.40;;;;;;;8.52;78.86;98773.88;5076015;28;20054;-76
2023/11/05 03:41:51;;;;;;;3.50;0.50;;;;;;;8.56;79.04;98783.25;5077110;28;20040;-74
2023/11/05 03:44:18;;;;;;;0.85;0.30;;;;;;;8.52;78.42;98776.50;5076597;28;20050;-74
2023/11/05 03:46:45;;;;;;;1.02;0.20;;;;;;;8.53;78.96;98779.00;5076871;28;20040;-74
2023/11/05 03:49:13;;;;;;;1.98;0.20;;;;;;;8.52;78.72;98773.88;5078986;28;20068;-75
2023/11/05 03:51:40;;;;;;;3.50;0.40;;;;;;;8.51;78.89;98774.81;5078395;28;20056;-74
2023/11/05 03:54:07;;;;;;;1.73;0.30;;;;;;;8.48;78.86;98775.78;5076915;28;20040;-74
2023/11/05 03:56:34;;;;;;;6.88;0.73;;;;;;;8.48;78.96;98769.69;5079067;28;20058;-73
2023/11/05 03:59:01;;;;;;;3.38;0.30;;;;;;;8.47;78.52;98760.22;5076450;28;20154;-73
2023/11/05 04:01:28;;;;;;;2.58;0.30;;;;;;;8.46;78.50;98767.19;5080286;28;20045;-73
2023/11/05 04:03:55;;;;;;;2.60;0.30;;;;;;;8.44;78.98;98758.59;5078676;28;20043;-73
2023/11/05 04:06:23;;;;;;;0.77;0.30;;;;;;;8.44;78.74;98765.56;5081083;28;20051;-73
2023/11/05 04:08:50;;;;;;;2.45;0.55;;;;;;;8.42;78.98;98765.59;5079017;28;20048;-73
2023/11/05 04:11:17;;;;;;;2.08;0.40;;;;;;;8.40;78.86;98761.41;5081416;28;20044;-74
2023/11/05 04:13:45;;;;;;;5.63;0.32;;;;;;;8.40;78.91;98759.63;5083644;28;20060;-74
2023/11/05 04:16:12;;;;;;;5.00;0.40;;;;;;;8.38;78.84;98742.38;5083168;28;20643;-75
2023/11/05 04:18:41;;;;;;;3.30;0.40;;;;;;;8.36;79.00;98742.41;5081102;28;20060;-73
2023/11/05 04:21:08;;;;;;;1.85;0.30;;;;;;;8.34;78.81;98741.66;5082762;28;20049;-73
2023/11/05 04:23:36;;;;;;;4.90;0.65;;;;;;;8.33;78.73;98739.94;5083261;28;20040;-73
2023/11/05 04:26:05;;;;;;;3.50;0.40;;;;;;;8.31;78.36;98746.97;5075346;28;20062;-73
2023/11/05 04:28:32;;;;;;;2.75;0.30;;;;;;;8.26;78.64;98736.75;5082878;28;20500;-73
2023/11/05 04:30:59;;;;;;;1.85;0.30;;;;;;;8.27;78.66;98745.41;5079528;28;20055;-73
2023/11/05 04:33:25;;;;;;;2.45;0.30;;;;;;;8.22;78.38;98736.94;5082263;28;20052;-73
2023/11/05 04:35:52;;;;;;;1.15;0.57;;;;;;;8.23;78.17;98741.25;5080264;28;20059;-73
2023/11/05 04:38:19;;;;;;;0.85;0.30;;;;;;;8.19;78.47;98737.91;5081359;28;20044;-74
2023/11/05 04:40:47;;;;;;;5.13;0.30;;;;;;;8.18;78.09;98746.63;5078184;28;20048;-73
2023/11/05 04:43:14;;;;;;;2.30;0.40;;;;;;;8.13;77.84;98747.72;5081858;28;20048;-74
2023/11/05 04:45:41;;;;;;;1.50;0.40;;;;;;;8.13;77.96;98753.78;5077216;28;20060;-73
2023/11/05 04:48:08;;;;;;;3.05;0.30;;;;;;;8.10;78.00;98751.31;5081323;28;20063;-74
2023/11/05 04:50:35;;;;;;;1.98;0.50;;;;;;;8.07;78.09;98754.03;5081148;28;20083;-73
2023/11/05 04:53:02;;;;;;;2.78;0.30;;;;;;;8.03;77.69;98748.13;5081848;28;20409;-73
2023/11/05 04:55:29;;;;;;;1.63;0.38;;;;;;;8.01;78.09;98755.13;5082047;28;20059;-74
2023/11/05 04:57:58;;;;;;;2.58;0.30;;;;;;;7.98;78.14;98757.00;5080258;28;20458;-73
2023/11/05 05:00:25;;;;;;;2.50;0.30;;;;;;;7.95;77.61;98754.53;5077088;28;20103;-74
2023/11/05 05:02:52;;;;;;;3.85;0.30;;;;;;;7.92;77.77;98750.31;5074419;28;20044;-68
2023/11/05 05:05:18;;;;;;;1.95;0.40;;;;;;;7.85;77.97;98754.03;5076712;28;20051;-69
2023/11/05 05:07:45;;;;;;;0.50;0.30;;;;;;;7.85;77.87;98754.91;5082215;28;20063;-69
2023/11/05 05:10:12;;;;;;;3.33;0.30;;;;;;;7.82;78.01;98752.41;5079336;28;20052;-69
2023/11/05 05:12:39;;;;;;;1.90;0.85;;;;;;;7.80;77.56;98762.03;5080910;28;20048;-69
2023/11/05 05:15:09;;;;;;;0.40;0.20;;;;;;;7.77;77.63;98767.34;5078523;28;20378;-68
2023/11/05 05:17:36;;;;;;;1.55;0.40;;;;;;;7.70;77.78;98755.50;5077087;28;20692;-68
2023/11/05 05:20:04;;;;;;;2.33;0.50;;;;;;;7.72;77.89;98771.88;5077494;28;20545;-69
2023/11/05 05:22:31;;;;;;;1.85;0.30;;;;;;;7.69;78.00;98774.59;5080614;28;20044;-69
2023/11/05 05:24:58;;;;;;;1.33;0.20;;;;;;;7.67;77.80;98779.00;5081896;28;20055;-68
2023/11/05 05:27:25;;;;;;;2.47;0.28;;;;;;;7.65;78.34;98778.19;5082172;28;20058;-68
2023/11/05 05:29:52;;;;;;;2.67;0.30;;;;;;;7.63;77.80;98774.84;5078779;28;20036;-68
2023/11/05 05:32:20;;;;;;;3.33;0.40;;;;;;;7.61;78.22;98780.09;5075708;28;20113;-68
2023/11/05 05:34:47;;;;;;;1.42;0.30;;;;;;;7.60;78.33;98778.41;5076699;28;20040;-69
2023/11/05 05:37:15;;;;;;;1.77;0.30;;;;;;;7.59;77.96;98775.84;5080248;28;20171;-68
2023/11/05 05:39:42;;;;;;;0.60;0.30;;;;;;;7.57;78.51;98777.66;5079478;28;20040;-68
2023/11/05 05:42:09;;;;;;;1.73;0.50;;;;;;;7.57;78.45;98775.06;5079406;28;20044;-68
2023/11/05 05:44:35;;;;;;;3.47;0.70;;;;;;;7.53;78.50;98771.72;5081639;28;20381;-69
2023/11/05 05:47:03;;;;;;;4.15;1.42;;;;;;;7.53;78.39;98773.47;5078525;28;20488;-69
2023/11/05 05:49:32;;;;;;;5.45;0.40;;;;;;;7.51;78.13;98770.94;5081399;28;20082;-68
2023/11/05 05:51:59;;;;;;;4.15;0.60;;;;;;;7.50;78.20;98776.19;5077933;28;20040;-68
2023/11/05 05:54:25;;;;;;;3.75;0.40;;;;;;;7.43;78.45;98770.41;5082010;28;20048;-77
2023/11/05 05:56:52;;;;;;;3.58;0.30;;;;;;;7.47;78.67;98777.16;5080449;28;20627;-78
2023/11/05 05:59:19;;;;;;;1.00;0.35;;;;;;;7.46;78.75;98782.41;5082778;28;20185;-79
2023/11/05 06:01:47;;;;;;;1.45;0.40;;;;;;;7.43;78.77;98771.25;5083451;28;20515;-77
2023/11/05 06:04:14;;;;;;;3.33;0.40;;;;;;;7.44;78.72;98772.09;5086624;28;20048;-78
2023/11/05 06:06:42;;;;;;;2.10;0.47;;;;;;;7.43;78.39;98768.66;5073794;28;20131;-78
2023/11/05 06:09:12;;;;;;;1.17;0.40;;;;;;;7.42;78.24;98771.28;5086836;28;20378;-76
2023/11/05 06:11:39;;;;;;;0.73;0.30;;;;;;;7.40;78.39;98768.75;5082649;28;20049;-77
2023/11/05 06:14:06;;;;;;;2.78;0.40;;;;;;;7.38;78.07;98760.19;5076222;28;20046;-74
2023/11/05 06:16:33;;;;;;;0.38;0.30;;;;;;;7.36;78.16;98761.97;5077765;28;20044;-74
2023/11/05 06:19:00;;;;;;;0.40;0.30;;;;;;;7.34;78.18;98758.59;5076635;28;20037;-73
2023/11/05 06:21:26;;;;;;;1.25;0.50;;;;;;;7.33;78.15;98750.84;5076280;28;20052;-74
2023/11/05 06:23:55;;;;;;;2.17;1.10;;;;;;;7.29;78.01;98744.94;5077496;28;20445;-74
2023/11/05 06:26:24;;;;;;;0.90;0.30;;;;;;;7.27;77.79;98751.94;5073707;28;20060;-74
2023/11/05 06:28:51;;;;;;;2.00;0.40;;;;;;;7.24;78.05;98759.00;5073466;28;20094;-74
2023/11/05 06:31:18;;;;;;;1.50;0.30;;;;;;;7.21;78.14;98752.16;5078613;28;20039;-73
2023/11/05 06:33:45;;;;;;;1.23;0.30;;;;;;;7.18;78.23;98750.53;5076306;28;20051;-75
2023/11/05 06:36:12;;;;;;;0.70;0.40;;;;;;;7.17;77.95;98753.16;5082023;28;20054;-74
2023/11/05 06:38:40;;;;;;;2.88;0.40;;;;;;;7.14;77.67;98761.06;5075477;28;20044;-74
2023/11/05 06:41:09;;;;;;;1.40;0.35;;;;;;;7.12;78.20;98760.31;5075211;28;20040;-74
2023/11/05 06:43:36;;;;;;;2.47;0.40;;;;;;;7.09;78.07;98757.81;5078982;28;20522;-74
2023/11/05 06:46:03;;;;;;;1.15;0.82;;;;;;;7.05;77.62;98762.25;5077650;28;20045;-73
2023/11/05 06:48:30;;;;;;;4.13;0.63;;;;;;;7.03;77.75;98771.00;5080823;28;20056;-74
2023/11/05 06:50:57;;;;;;;2.33;0.50;;;;;;;7.01;77.93;98765.88;5078894;28;20052;-74
2023/11/05 06:53:23;;;;;;;1.98;0.55;;;;;;;6.99;78.09;98771.13;5074028;28;20053;-74
2023/11/05 06:55:50;;;;;;;1.13;0.32;;;;;;;6.96;77.72;98758.25;5076475;28;20623;-73
2023/11/05 06:58:19;;;;;;;1.73;0.40;;;;;;;6.94;78.05;98754.00;5078020;28;20612;-73
2023/11/05 07:00:45;;;;;;;1.38;0.50;;;;;;;6.92;77.69;98755.84;5076692;28;20048;-73
2023/11/05 07:03:12;;;;;;;2.40;0.40;;;;;;;6.88;78.02;98752.47;5076833;28;20497;-76
2023/11/05 07:05:40;;;;;;;1.33;0.50;;;;;;;6.82;77.94;98739.72;5080764;28;20052;-78
2023/11/05 07:08:07;;;;;;;1.83;0.47;;;;;;;6.83;77.98;98751.81;5078101;28;20136;-76
2023/11/05 07:10:34;;;;;;;1.73;0.40;;;;;;;6.75;77.88;98733.94;5087104;28;20037;-78
2023/11/05 07:13:02;;;;;;;0.98;0.47;;;;;;;6.80;77.89;98745.88;5085945;28;20044;-78
2023/11/05 07:15:30;;;;;;;3.22;0.80;;;;;;;6.78;77.79;98743.34;5086235;28;20047;-78
2023/11/05 07:17:57;;;;;;;2.92;0.75;;;;;;;6.76;77.76;98745.97;5083760;28;20424;-78
2023/11/05 07:20:24;;;;;;;2.90;0.60;;;;;;;6.74;77.75;98744.34;5085243;28;20470;-78
2023/11/05 07:22:51;;;;;;;1.45;0.47;;;;;;;6.71;77.75;98736.66;5082588;28;20050;-68
2023/11/05 07:25:18;;;;;;;1.15;0.40;;;;;;;6.70;78.15;98745.38;5080597;28;20048;-69
2023/11/05 07:27:45;;;;;;;1.40;0.38;;;;;;;6.69;77.81;98741.09;5077886;28;20048;-68
2023/11/05 07:30:13;;;;;;;1.05;0.95;;;;;;;6.66;77.94;98738.56;5077586;28;20037;-68
2023/11/05 07:32:42;;;;;;;1.08;0.40;;;;;;;6.63;77.74;98738.69;5077550;28;20072;-69
2023/11/05 07:35:08;;;;;;;1.83;0.40;;;;;;;6.61;77.93;98746.53;5075398;28;20040;-68
2023/11/05 07:37:35;;;;;;;5.63;0.50;;;;;;;6.60;78.16;98744.81;5081288;28;20049;-68
2023/11/05 07:40:03;;;;;;;2.17;0.68;;;;;;;6.57;78.16;98744.94;5080531;28;20040;-69
2023/11/05 07:42:30;;;;;;;0.50;0.40;;;;;;;6.56;78.15;98737.22;5080192;28;20556;-68
2023/11/05 07:44:56;;;;;;;1.13;0.40;;;;;;;6.55;78.04;98743.31;5080129;28;20045;-68
2023/11/05 07:47:23;;;;;;;3.85;0.50;;;;;;;6.53;78.34;98733.81;5080533;28;20504;-69
2023/11/05 07:49:52;;;;;;;1.75;0.40;;;;;;;6.54;78.11;98734.66;5079057;28;20048;-69
2023/11/05 07:52:19;;;;;;;1.75;0.50;;;;;;;6.52;78.49;98733.88;5074974;28;20603;-69
2023/11/05 07:54:45;;;;;;;1.33;0.47;;;;;;;6.52;78.65;98731.31;5081738;28;20048;-68
2023/11/05 07:57:12;;;;;;;2.15;0.68;;;;;;;6.51;78.69;98732.19;5080647;28;20056;-69
2023/11/05 07:59:40;;;;;;;4.43;0.60;;;;;;;6.50;78.57;98733.94;5080910;28;20050;-69
2023/11/05 08:02:07;;;;;;;1.05;0.40;;;;;;;6.50;78.80;98733.94;5080836;28;20051;-70
2023/11/05 08:04:34;;;;;;;2.47;0.60;;;;;;;6.50;79.08;98720.97;5081542;28;20151;-69
2023/11/05 08:07:02;;;;;;;1.42;0.60;;;;;;;6.51;79.19;98729.59;5082327;28;20059;-69
2023/11/05 08:09:29;;;;;;;3.05;0.45;;;;;;;6.51;79.08;98732.19;5080036;28;20490;-70
2023/11/05 08:11:56;;;;;;;3.33;0.55;;;;;;;6.51;79.47;98730.44;5078251;28;20079;-69
2023/11/05 08:14:23;;;;;;;3.78;0.70;;;;;;;6.52;79.91;98729.53;5077382;28;20052;-68
2023/11/05 08:16:50;;;;;;;5.35;0.75;;;;;;;6.55;79.49;98735.53;5082102;28;20053;-70
2023/11/05 08:19:17;;;;;;;2.72;0.60;;;;;;;6.56;80.07;98726.84;5083277;28;20098;-69
2023/11/05 08:21:44;;;;;;;4.97;0.60;;;;;;;6.57;79.92;98721.59;5080247;28;20051;-69
2023/11/05 08:24:12;;;;;;;6.13;0.85;;;;;;;6.58;80.28;98725.06;5080316;28;20044;-70
2023/11/05 08:26:39;;;;;;;1.92;0.80;;;;;;;6.60;80.22;98718.88;5077371;28;21316;-69
2023/11/05 08:29:06;;;;;;;3.42;0.82;;;;;;;6.62;80.63;98729.22;5079503;28;20482;-69
2023/11/05 08:31:33;;;;;;;4.22;0.77;;;;;;;6.64;80.56;98728.25;5081325;28;20046;-69
2023/11/05 08:34:00;;;;;;;5.65;1.13;;;;;;;6.65;81.17;98732.53;5082107;28;20040;-71
2023/11/05 08:36:40;;;;;;;3.50;1.10;;;;;;;6.68;81.07;98726.41;5078261;28;20052;-70
2023/11/05 08:39:08;;;;;;;6.20;1.65;;;;;;;6.71;81.09;98728.88;5077995;28;20459;-71
2023/11/05 08:41:36;;;;;;;3.42;1.70;;;;;;;6.73;82.06;98725.34;5078502;28;20048;-70
2023/11/05 08:44:03;;;;;;;6.03;2.38;;;;;;;6.76;81.96;98724.38;5082156;28;20129;-70
2023/11/05 08:46:30;;;;;;;7.88;2.30;;;;;;;6.80;82.05;98725.94;5079309;28;20044;-71
2023/11/05 08:48:57;;;;;;;2.38;1.85;;;;;;;6.84;82.70;98731.91;5080709;28;20040;-70
2023/11/05 08:51:26;;;;;;;10.75;3.55;;;;;;;6.86;82.71;98722.28;5082597;28;20670;-70
2023/11/05 08:53:56;;;;;;;9.40;2.65;;;;;;;6.91;82.58;98729.00;5078262;28;20056;-70
2023/11/05 08:56:23;;;;;;;16.27;3.45;;;;;;;6.95;82.63;98730.59;5080490;28;20060;-71
2023/11/05 08:58:51;;;;;;;9.75;3.60;;;;;;;7.02;83.06;98722.59;5078230;28;20055;-71
2023/11/05 09:01:18;;;;;;;12.52;3.20;;;;;;;7.07;83.26;98728.47;5077525;28;20052;-71
2023/11/05 09:03:46;;;;;;;9.85;3.25;;;;;;;7.13;83.64;98725.63;5074453;28;20053;-72
2023/11/05 09:06:13;;;;;;;6.97;2.95;;;;;;;7.15;83.52;98716.91;5075288;28;20403;-71
2023/11/05 09:08:40;;;;;;;4.82;3.55;;;;;;;7.22;83.66;98730.47;5080075;28;20497;-71
2023/11/05 09:11:08;;;;;;;11.23;3.40;;;;;;;7.27;83.95;98720.78;5073500;28;20054;-70
2023/11/05 09:13:35;;;;;;;10.98;3.47;;;;;;;7.31;83.83;98719.75;5076923;28;20055;-71
2023/11/05 09:16:06;;;;;;;9.63;3.78;;;;;;;7.36;83.68;98712.63;5080032;28;20057;-71
2023/11/05 09:18:32;;;;;;;8.48;3.70;;;;;;;7.42;83.41;98712.38;5081192;28;20626;-70
2023/11/05 09:20:59;;;;;;;16.25;4.65;;;;;;;7.44;83.63;98713.19;5073334;28;20051;-72
2023/11/05 09:23:27;;;;;;;7.63;3.67;;;;;;;7.50;84.07;98709.50;5079019;28;20127;-76
2023/11/05 09:25:55;;;;;;;12.05;4.32;;;;;;;7.56;83.82;98713.59;5078604;28;20044;-76
2023/11/05 09:28:22;;;;;;;19.70;5.05;;;;;;;7.61;84.32;98714.28;5082243;28;20127;-76
2023/11/05 09:30:48;;;;;;;7.05;4.18;;;;;;;7.64;83.76;98709.81;5082761;28;20044;-77
2023/11/05 09:33:17;;;;;;;14.18;3.78;;;;;;;7.69;84.30;98709.63;5080593;28;20058;-77
2023/11/05 09:35:44;;;;;;;10.02;4.15;;;;;;;7.74;84.16;98709.44;5081303;28;20065;-77
2023/11/05 09:38:10;;;;;;;12.52;3.80;;;;;;;7.77;83.78;98712.78;5082592;28;20505;-77
2023/11/05 09:40:37;;;;;;;9.07;3.40;;;;;;;7.82;83.63;98707.38;5079330;28;20048;-77
2023/11/05 09:43:06;;;;;;;10.48;4.70;;;;;;;7.85;83.76;98705.53;5081831;28;20058;-74
2023/11/05 09:45:34;;;;;;;6.88;4.15;;;;;;;7.88;83.77;98702.78;5081072;28;20127;-73
2023/11/05 09:48:04;;;;;;;9.60;4.47;;;;;;;7.95;83.35;98700.78;5079735;28;20044;-72
2023/11/05 09:50:34;;;;;;;11.77;4.18;;;;;;;7.97;83.54;98696.38;5078019;28;20121;-72
2023/11/05 09:53:05;;;;;;;17.30;4.05;;;;;;;8.03;83.32;98695.28;5078208;28;20071;-71
2023/11/05 09:55:33;;;;;;;8.35;3.67;;;;;;;8.05;83.44;98693.44;5078443;28;20102;-72
2023/11/05 09:58:00;;;;;;;12.98;3.85;;;;;;;8.06;83.26;98684.75;5080228;28;20048;-72
2023/11/05 10:00:27;;;;;;;6.93;3.33;;;;;;;8.10;83.50;98684.53;5074967;28;20044;-72
2023/11/05 10:02:58;;;;;;;9.07;3.97;;;;;;;8.15;83.27;98684.34;5076638;28;20049;-72
2023/11/05 10:05:26;;;;;;;11.02;3.83;;;;;;;8.18;83.20;98678.19;5077428;28;20056;-72
2023/11/05 10:07:55;;;;;;;7.95;3.55;;;;;;;8.21;83.29;98671.09;5079680;28;20036;-74
2023/11/05 10:10:22;;;;;;;13.32;3.38;;;;;;;8.23;83.34;98671.88;5081381;28;20131;-72
2023/11/05 10:12:49;;;;;;;9.63;3.45;;;;;;;8.27;83.26;98678.63;5076107;28;20508;-72
2023/11/05 10:15:17;;;;;;;9.18;3.50;;;;;;;8.29;83.60;98675.97;5080536;28;20071;-72
2023/11/05 10:17:45;;;;;;;7.38;3.65;;;;;;;8.32;82.84;98674.06;5082155;28;20051;-72
2023/11/05 10:20:13;;;;;;;10.95;3.58;;;;;;;8.35;82.99;98665.28;5074979;28;20047;-73
2023/11/05 10:22:43;;;;;;;11.68;3.88;;;;;;;8.39;82.98;98668.63;5080694;28;20485;-72
2023/11/05 10:25:24;;;;;;;5.22;3.88;;;;;;;8.42;82.73;98663.28;5083589;28;20044;-72
2023/11/05 10:27:52;;;;;;;11.52;4.15;;;;;;;8.44;82.93;98664.91;5081076;28;20424;-72
2023/11/05 10:30:19;;;;;;;10.70;3.30;;;;;;;8.46;82.61;98663.09;5081012;28;20051;-71
2023/11/05 10:32:49;;;;;;;7.93;3.83;;;;;;;8.49;82.72;98665.56;5078999;28;20040;-68
2023/11/05 10:35:19;;;;;;;10.85;3.33;;;;;;;8.51;82.38;98660.31;5075755;28;20102;-69
2023/11/05 10:37:47;;;;;;;9.98;3.00;;;;;;;8.53;82.63;98671.47;5079901;28;20048;-68
2023/11/05 10:40:14;;;;;;;8.40;3.45;;;;;;;8.55;82.71;98667.91;5073490;28;20062;-68
2023/11/05 10:42:44;;;;;;;9.05;3.17;;;;;;;8.58;82.60;98669.53;5078229;28;20040;-69
2023/11/05 10:45:13;;;;;;;9.02;3.13;;;;;;;8.60;82.07;98665.09;5082876;28;20097;-69
2023/11/05 10:47:40;;;;;;;8.40;3.92;;;;;;;8.61;82.37;98664.19;5078193;28;20037;-69
2023/11/05 10:50:11;;;;;;;15.20;5.05;;;;;;;8.64;82.32;98663.22;5077392;28;20517;-69
2023/11/05 10:52:41;;;;;;;7.25;3.40;;;;;;;8.66;82.08;98659.63;5080105;28;20047;-69
2023/11/05 10:55:10;;;;;;;7.40;3.45;;;;;;;8.68;82.36;98665.63;5077524;28;20775;-69
2023/11/05 10:57:43;;;;;;;8.45;2.72;;;;;;;8.70;82.32;98653.34;5076680;28;20501;-69
2023/11/05 11:00:48;;;;;;;8.15;3.50;;;;;;;8.72;81.92;98666.31;5076777;28;20082;-69
2023/11/05 11:03:15;;;;;;;7.65;3.53;;;;;;;8.73;81.86;98655.81;5077198;28;20037;-69
2023/11/05 11:05:59;;;;;;;12.15;3.80;;;;;;;8.76;81.97;98660.88;5079578;28;20037;-69
2023/11/05 11:08:29;;;;;;;9.30;3.85;;;;;;;8.76;82.05;98666.09;5081577;28;20421;-69
2023/11/05 11:11:12;;;;;;;9.43;4.60;;;;;;;8.76;82.28;98658.28;5078856;28;20051;-69
2023/11/05 11:13:49;;;;;;;10.27;3.53;;;;;;;8.80;81.94;98660.78;5081885;28;20052;-69
2023/11/05 11:16:26;;;;;;;10.75;4.25;;;;;;;8.83;81.89;98665.84;5077900;28;20083;-69
2023/11/05 11:18:54;;;;;;;10.07;3.88;;;;;;;8.80;81.73;98656.41;5079172;28;20048;-69
2023/11/05 11:21:22;;;;;;;10.80;3.60;;;;;;;8.85;82.00;98661.38;5079788;28;20044;-69
2023/11/05 11:23:50;;;;;;;11.20;4.85;;;;;;;8.88;81.72;98663.84;5079779;28;20432;-69
2023/11/05 11:26:22;;;;;;;10.60;4.72;;;;;;;8.91;81.73;98663.75;5077986;28;20044;-69
2023/11/05 11:29:04;;;;;;;13.60;3.58;;;;;;;8.94;81.83;98663.59;5078932;28;20044;-69
2023/11/05 11:31:33;;;;;;;15.60;3.20;;;;;;;8.95;81.37;98667.88;5080818;28;20079;-69
2023/11/05 11:34:00;;;;;;;10.68;3.03;;;;;;;8.97;81.88;98668.66;5080033;28;20049;-68
2023/11/05 11:36:27;;;;;;;7.30;2.60;;;;;;;8.98;81.64;98665.13;5078522;28;20046;-69
2023/11/05 11:38:54;;;;;;;6.82;2.58;;;;;;;8.99;81.70;98665.09;5077500;28;20051;-69
2023/11/05 11:41:21;;;;;;;9.88;3.40;;;;;;;9.00;81.61;98671.13;5078157;28;20048;-69
2023/11/05 11:43:49;;;;;;;5.03;2.88;;;;;;;9.02;81.48;98671.88;5080574;28;20043;-75